Nave Orbit — 9HA2003 — position and weather

sailwx.info

Track history (hours):
 
Tides and Currents Weather Stations Pressure Air Temp Water Temp Dewpoint Dewpoint Depression Visibility Wind Speed Wind Dir Waves Ship Positions

Nave Orbit

Last reported at 2018-May-17 18:29 UTC. Time now 2018-May-26 04:20 UTC.
Position N 09°13' W 079°55'.
Warning: this ship's position is 8 days out of date.

Length 183 m; draft 11.1 m.

Type: Tanker. MMSI: 249778000.

Date/timePositionNaut miles runAvg speedWind from/ knotsBaromVisibWave heightAir tempDewpointWater temp
2018-May-17 18:29N 09°13' W 079°55'1 1.0
2018-May-17 17:17N 09°14' W 079°56'0 0.0
2018-May-17 16:53N 09°14' W 079°56'0 0.0
2018-May-17 15:23N 09°14' W 079°56'0 0.0
2018-May-17 13:47N 09°14' W 079°56'0 0.0
2018-May-17 12:41N 09°14' W 079°56'0 0.1
2018-May-17 12:20N 09°14' W 079°56'0 0.1
2018-May-17 11:56N 09°14' W 079°56'1 2.8
2018-May-17 11:26N 09°15' W 079°55'1 2.3
2018-May-17 10:59N 09°16' W 079°55'0 0.3
2018-May-17 10:30N 09°16' W 079°55'0 0.4
2018-May-17 10:00N 09°17' W 079°55'0 0.8
2018-May-17 09:30N 09°17' W 079°55'3 6.6
2018-May-17 09:00N 09°20' W 079°55'2 4.9
2018-May-17 08:30N 09°23' W 079°55'0 0.0
2018-May-17 08:00N 09°23' W 079°56'0 0.0
2018-May-17 07:30N 09°23' W 079°55'0 0.0
2018-May-17 07:00N 09°23' W 079°55'0 0.0
2018-May-17 06:30N 09°23' W 079°56'0 0.0
2018-May-17 06:00N 09°23' W 079°56'0 0.0
2018-May-17 05:30N 09°23' W 079°56'0 0.0
2018-May-17 05:00N 09°23' W 079°56'0 0.0
2018-May-17 04:30N 09°23' W 079°56'0 0.1
2018-May-17 04:00N 09°23' W 079°56'0 0.1
2018-May-17 03:30N 09°23' W 079°56'0 0.1
2018-May-17 03:00N 09°23' W 079°56'0 0.1
2018-May-17 02:30N 09°23' W 079°56'0 0.1
2018-May-17 02:00N 09°23' W 079°55'0 0.0
2018-May-17 01:30N 09°23' W 079°55'0 0.0
2018-May-17 01:00N 09°23' W 079°55'0 0.0
2018-May-17 00:30N 09°23' W 079°55'0 0.0
2018-May-17 00:00N 09°23' W 079°55'0 0.0
2018-May-16 23:30N 09°23' W 079°55'0 0.0
2018-May-16 23:00N 09°23' W 079°55'0 0.0
2018-May-16 22:30N 09°23' W 079°55'0 0.0
2018-May-16 22:00N 09°23' W 079°55'0 0.0
2018-May-16 21:30N 09°23' W 079°55'0 0.0
2018-May-16 21:00N 09°23' W 079°55'0 0.0
2018-May-16 20:30N 09°23' W 079°55'0 0.0
2018-May-16 20:00N 09°23' W 079°55'0 0.0
2018-May-16 19:30N 09°23' W 079°55'0 0.0
2018-May-16 19:00N 09°23' W 079°55'0 0.1
2018-May-16 18:30N 09°23' W 079°55'0 0.1
2018-May-16 18:00N 09°23' W 079°55'0 0.0
2018-May-16 17:30N 09°23' W 079°55'0 0.0
2018-May-16 17:00N 09°23' W 079°55'0 0.0
2018-May-16 16:30N 09°23' W 079°55'0 0.0
2018-May-16 16:00N 09°23' W 079°55'0 0.1
2018-May-16 15:30N 09°23' W 079°55'0 0.1
2018-May-16 15:00N 09°23' W 079°55'0 0.0
2018-May-16 14:30N 09°23' W 079°55'0 0.0
2018-May-16 14:00N 09°23' W 079°55'0 0.0
2018-May-16 13:30N 09°23' W 079°55'0 0.2
2018-May-16 13:00N 09°23' W 079°55'2 4.5
2018-May-16 12:30N 09°25' W 079°55'5 9.3
2018-May-16 12:00N 09°30' W 079°54'0 0.6
2018-May-16 11:30N 09°30' W 079°54'1 1.8
2018-May-16 11:00N 09°31' W 079°54'  
2018-May-11 15:00N 29°14' W 093°40'510.5
2018-May-11 14:29N 29°20' W 093°40'5 9.4
2018-May-11 14:00N 29°24' W 093°40'2 0.9
2018-May-11 11:49N 29°25' W 093°38'0 0.0
2018-May-11 10:37N 29°25' W 093°38'0 0.0
2018-May-11 10:19N 29°25' W 093°38'0 0.0
2018-May-11 09:55N 29°25' W 093°38'0 0.0
2018-May-11 05:55N 29°25' W 093°38'0 0.0
2018-May-11 05:13N 29°25' W 093°38'0 0.0
2018-May-11 03:19N 29°25' W 093°38'0 0.0
2018-May-11 02:34N 29°25' W 093°38'0 0.0
2018-May-11 02:25N 29°25' W 093°38'0 0.0
2018-May-11 01:25N 29°25' W 093°38'0 0.0
2018-May-11 00:55N 29°25' W 093°38'0 0.0
2018-May-10 21:31N 29°25' W 093°38'0 0.1
2018-May-10 21:25N 29°25' W 093°38'0 0.0
2018-May-10 20:55N 29°25' W 093°38'0 0.0
2018-May-10 20:28N 29°25' W 093°38'0 0.1
2018-May-10 19:55N 29°25' W 093°38'0 0.2
2018-May-10 19:30N 29°25' W 093°38'2 3.7
2018-May-10 18:58N 29°26' W 093°40'4 8.3
2018-May-10 18:30N 29°30' W 093°41'611.3
2018-May-10 18:00N 29°34' W 093°46'510.6
2018-May-10 17:30N 29°38' W 093°49'5 9.5
2018-May-10 17:00N 29°42' W 093°51'4 8.1
2018-May-10 16:31N 29°46' W 093°54'4 7.6
2018-May-10 16:01N 29°48' W 093°57'3 6.4
2018-May-10 15:30N 29°51' W 093°57'3 5.6
2018-May-10 15:01N 29°54' W 093°55'3 5.9
2018-May-10 14:30N 29°56' W 093°52'3 5.8
2018-May-10 14:00N 29°59' W 093°52'3 6.1
2018-May-10 13:30N 29°59' W 093°56'3 5.6
2018-May-10 13:01N 30°01' W 093°58'3 5.5
2018-May-10 12:30N 30°01' W 094°02'2 4.6
2018-May-10 12:00N 30°04' W 094°02'2 4.2
2018-May-10 11:30N 30°05' W 094°04'0 0.1
2018-May-10 10:55N 30°05' W 094°04'0 0.0
2018-May-10 10:29N 30°05' W 094°04'0 0.0
2018-May-10 09:59N 30°05' W 094°04'0 0.0
2018-May-10 09:29N 30°05' W 094°04'0 0.0
2018-May-10 08:59N 30°05' W 094°04'0 0.0
2018-May-10 08:29N 30°05' W 094°04'0 0.0
2018-May-10 07:59N 30°05' W 094°04'0 0.0
2018-May-10 07:29N 30°05' W 094°04'0 0.0
2018-May-10 06:56N 30°05' W 094°04'0 0.0
2018-May-10 06:23N 30°05' W 094°04'0 0.0
2018-May-10 05:59N 30°05' W 094°04'0 0.0
2018-May-10 05:29N 30°05' W 094°04'0 0.0
2018-May-10 04:56N 30°05' W 094°04'0 0.0
2018-May-10 04:29N 30°05' W 094°04'0 0.0
2018-May-10 03:53N 30°05' W 094°04'0 0.0
2018-May-10 03:29N 30°05' W 094°04'0 0.0
2018-May-10 02:59N 30°05' W 094°04'0 0.0
2018-May-10 02:29N 30°05' W 094°04'0 0.0
2018-May-10 01:59N 30°05' W 094°04'0 0.0
2018-May-10 01:26N 30°05' W 094°04'0 0.0
2018-May-10 00:59N 30°05' W 094°04'0 0.0
2018-May-10 00:26N 30°05' W 094°04'0 0.0
2018-May-09 23:59N 30°05' W 094°04'0 0.0
2018-May-09 23:29N 30°05' W 094°04'0 0.0
2018-May-09 22:59N 30°05' W 094°04'0 0.0
2018-May-09 22:26N 30°05' W 094°04'0 0.0
2018-May-09 21:59N 30°05' W 094°04'0 0.0
2018-May-09 21:29N 30°05' W 094°04'0 0.0
2018-May-09 20:59N 30°05' W 094°04'0 0.0
2018-May-09 20:29N 30°05' W 094°04'0 0.0
2018-May-09 19:35N 30°05' W 094°04'0 0.0
2018-May-09 19:26N 30°05' W 094°04'0 0.0
2018-May-09 18:59N 30°05' W 094°04'0 0.0
2018-May-09 18:29N 30°05' W 094°04'0 0.0
2018-May-09 17:59N 30°05' W 094°04'0 0.0
2018-May-09 17:29N 30°05' W 094°04'0 0.0
2018-May-09 16:59N 30°05' W 094°04'0 0.0
2018-May-09 16:29N 30°05' W 094°04'0 0.0
2018-May-09 15:59N 30°05' W 094°04'0 0.0
2018-May-09 15:29N 30°05' W 094°04'0 0.0
2018-May-09 14:59N 30°05' W 094°04'0 0.0
2018-May-09 14:29N 30°05' W 094°04'0 0.0
2018-May-09 13:56N 30°05' W 094°04'0 0.0
2018-May-09 13:29N 30°05' W 094°04'0 0.0
2018-May-09 12:59N 30°05' W 094°04'0 0.0
2018-May-09 12:29N 30°05' W 094°04'0 0.0
2018-May-09 11:59N 30°05' W 094°04'0 0.0
2018-May-09 11:23N 30°05' W 094°04'0 0.0
2018-May-09 10:59N 30°05' W 094°04'0 0.0
2018-May-09 10:26N 30°05' W 094°04'0 0.0
2018-May-09 09:59N 30°05' W 094°04'0 0.0
2018-May-09 09:29N 30°05' W 094°04'0 0.0
2018-May-09 08:59N 30°05' W 094°04'0 0.0
2018-May-09 08:29N 30°05' W 094°04'0 0.0
2018-May-09 07:59N 30°05' W 094°04'0 0.0
2018-May-09 07:23N 30°05' W 094°04'0 0.0
2018-May-09 06:50N 30°05' W 094°04'0 0.0
2018-May-09 06:26N 30°05' W 094°04'0 0.0
2018-May-09 05:59N 30°05' W 094°04'0 0.0
2018-May-09 05:20N 30°05' W 094°04'0 0.0
2018-May-09 04:53N 30°05' W 094°04'0 0.0
2018-May-09 04:29N 30°05' W 094°04'0 0.0
2018-May-09 03:59N 30°05' W 094°04'0 0.0
2018-May-09 03:23N 30°05' W 094°04'0 0.0
2018-May-09 02:53N 30°05' W 094°04'0 0.0
2018-May-09 02:17N 30°05' W 094°04'0 0.0
2018-May-09 01:53N 30°05' W 094°04'0 0.0
2018-May-09 01:23N 30°05' W 094°04'0 0.0
2018-May-09 00:59N 30°05' W 094°04'0 0.0
2018-May-09 00:29N 30°05' W 094°04'0 0.0
2018-May-08 23:59N 30°05' W 094°04'0 0.0
2018-May-08 23:29N 30°05' W 094°04'0 0.0
2018-May-08 22:59N 30°05' W 094°04'0 0.0
2018-May-08 22:29N 30°05' W 094°04'0 0.0
2018-May-08 21:59N 30°05' W 094°04'0 0.0
2018-May-08 21:23N 30°05' W 094°04'0 0.0
2018-May-08 20:59N 30°05' W 094°04'0 0.0
2018-May-08 20:29N 30°05' W 094°04'0 0.0
2018-May-08 19:59N 30°05' W 094°04'0 0.0
2018-May-08 19:26N 30°05' W 094°04'0 0.0
2018-May-08 18:59N 30°05' W 094°04'0 0.0
2018-May-08 18:29N 30°05' W 094°04'0 0.0
2018-May-08 17:59N 30°05' W 094°04'0 0.0
2018-May-08 17:26N 30°05' W 094°04'0 0.0
2018-May-08 16:56N 30°05' W 094°04'0 0.0
2018-May-08 16:26N 30°05' W 094°04'0 0.0
2018-May-08 15:59N 30°05' W 094°04'0 0.0
2018-May-08 15:29N 30°05' W 094°04'0 0.0
2018-May-08 14:59N 30°05' W 094°04'0 0.0
2018-May-08 14:26N 30°05' W 094°04'0 0.0
2018-May-08 13:44N 30°05' W 094°04'0 0.0
2018-May-08 13:29N 30°05' W 094°04'0 0.0
2018-May-08 12:50N 30°05' W 094°04'0 0.0
2018-May-08 12:29N 30°05' W 094°04'0 0.0
2018-May-08 11:59N 30°05' W 094°04'0 0.0
2018-May-08 11:29N 30°05' W 094°04'0 0.0
2018-May-08 10:59N 30°05' W 094°04'0 0.0
2018-May-08 10:29N 30°05' W 094°04'0 0.0
2018-May-08 09:56N 30°05' W 094°04'0 0.0
2018-May-08 09:26N 30°05' W 094°04'0 0.0
2018-May-08 08:59N 30°05' W 094°04'0 0.0
2018-May-08 08:26N 30°05' W 094°04'0 0.0
2018-May-08 07:53N 30°05' W 094°04'0 0.0
2018-May-08 07:20N 30°05' W 094°04'0 0.0
2018-May-08 06:56N 30°05' W 094°04'0 0.0
2018-May-08 06:29N 30°05' W 094°04'0 0.0
2018-May-08 05:59N 30°05' W 094°04'0 0.0
2018-May-08 05:26N 30°05' W 094°04'0 0.0
2018-May-08 04:59N 30°05' W 094°04'0 0.0
2018-May-08 04:26N 30°05' W 094°04'0 0.0
2018-May-08 03:59N 30°05' W 094°04'0 0.0
2018-May-08 03:29N 30°05' W 094°04'0 0.0
2018-May-08 02:53N 30°05' W 094°04'0 0.0
2018-May-08 02:23N 30°05' W 094°04'0 0.0
2018-May-08 01:59N 30°05' W 094°04'0 0.0
2018-May-08 01:14N 30°05' W 094°04'0 0.0
2018-May-08 00:56N 30°05' W 094°04'0 0.0
2018-May-08 00:29N 30°05' W 094°04'0 0.0
2018-May-07 23:59N 30°05' W 094°04'0 0.0
2018-May-07 23:29N 30°05' W 094°04'0 0.0
2018-May-07 22:56N 30°05' W 094°04'0 0.0
2018-May-07 22:29N 30°05' W 094°04'0 0.0
2018-May-07 21:59N 30°05' W 094°04'0 0.0
2018-May-07 21:29N 30°05' W 094°04'0 0.0
2018-May-07 20:56N 30°05' W 094°04'0 0.0
2018-May-07 20:29N 30°05' W 094°04'0 0.0
2018-May-07 19:59N 30°05' W 094°04'0 0.0
2018-May-07 19:29N 30°05' W 094°04'0 0.0
2018-May-07 18:59N 30°05' W 094°04'0 0.0
2018-May-07 18:29N 30°05' W 094°04'  
Track history (hours):
 
Tides and Currents Weather Stations Pressure Air Temp Water Temp Dewpoint Dewpoint Depression Visibility Wind Speed Wind Dir Waves Ship Positions

Nave Orbit

Last reported at 2018-May-17 18:29 UTC. Time now 2018-May-26 04:20 UTC.
Position N 09°13' W 079°55'.
Warning: this ship's position is 8 days out of date.

Length 183 m; draft 11.1 m.

Type: Tanker. MMSI: 249778000.

Date/timePositionNaut miles runAvg speedWind from/ knotsBaromVisibWave heightAir tempDewpointWater temp
2018-May-17 18:29N 09°13' W 079°55'1 1.0
2018-May-17 17:17N 09°14' W 079°56'0 0.0
2018-May-17 16:53N 09°14' W 079°56'0 0.0
2018-May-17 15:23N 09°14' W 079°56'0 0.0
2018-May-17 13:47N 09°14' W 079°56'0 0.0
2018-May-17 12:41N 09°14' W 079°56'0 0.1
2018-May-17 12:20N 09°14' W 079°56'0 0.1
2018-May-17 11:56N 09°14' W 079°56'1 2.8
2018-May-17 11:26N 09°15' W 079°55'1 2.3
2018-May-17 10:59N 09°16' W 079°55'0 0.3
2018-May-17 10:30N 09°16' W 079°55'0 0.4
2018-May-17 10:00N 09°17' W 079°55'0 0.8
2018-May-17 09:30N 09°17' W 079°55'3 6.6
2018-May-17 09:00N 09°20' W 079°55'2 4.9
2018-May-17 08:30N 09°23' W 079°55'0 0.0
2018-May-17 08:00N 09°23' W 079°56'0 0.0
2018-May-17 07:30N 09°23' W 079°55'0 0.0
2018-May-17 07:00N 09°23' W 079°55'0 0.0
2018-May-17 06:30N 09°23' W 079°56'0 0.0
2018-May-17 06:00N 09°23' W 079°56'0 0.0
2018-May-17 05:30N 09°23' W 079°56'0 0.0
2018-May-17 05:00N 09°23' W 079°56'0 0.0
2018-May-17 04:30N 09°23' W 079°56'0 0.1
2018-May-17 04:00N 09°23' W 079°56'0 0.1
2018-May-17 03:30N 09°23' W 079°56'0 0.1
2018-May-17 03:00N 09°23' W 079°56'0 0.1
2018-May-17 02:30N 09°23' W 079°56'0 0.1
2018-May-17 02:00N 09°23' W 079°55'0 0.0
2018-May-17 01:30N 09°23' W 079°55'0 0.0
2018-May-17 01:00N 09°23' W 079°55'0 0.0
2018-May-17 00:30N 09°23' W 079°55'0 0.0
2018-May-17 00:00N 09°23' W 079°55'0 0.0
2018-May-16 23:30N 09°23' W 079°55'0 0.0
2018-May-16 23:00N 09°23' W 079°55'0 0.0
2018-May-16 22:30N 09°23' W 079°55'0 0.0
2018-May-16 22:00N 09°23' W 079°55'0 0.0
2018-May-16 21:30N 09°23' W 079°55'0 0.0
2018-May-16 21:00N 09°23' W 079°55'0 0.0
2018-May-16 20:30N 09°23' W 079°55'0 0.0
2018-May-16 20:00N 09°23' W 079°55'0 0.0
2018-May-16 19:30N 09°23' W 079°55'0 0.0
2018-May-16 19:00N 09°23' W 079°55'0 0.1
2018-May-16 18:30N 09°23' W 079°55'0 0.1
2018-May-16 18:00N 09°23' W 079°55'0 0.0
2018-May-16 17:30N 09°23' W 079°55'0 0.0
2018-May-16 17:00N 09°23' W 079°55'0 0.0
2018-May-16 16:30N 09°23' W 079°55'0 0.0
2018-May-16 16:00N 09°23' W 079°55'0 0.1
2018-May-16 15:30N 09°23' W 079°55'0 0.1
2018-May-16 15:00N 09°23' W 079°55'0 0.0
2018-May-16 14:30N 09°23' W 079°55'0 0.0
2018-May-16 14:00N 09°23' W 079°55'0 0.0
2018-May-16 13:30N 09°23' W 079°55'0 0.2
2018-May-16 13:00N 09°23' W 079°55'2 4.5
2018-May-16 12:30N 09°25' W 079°55'5 9.3
2018-May-16 12:00N 09°30' W 079°54'0 0.6
2018-May-16 11:30N 09°30' W 079°54'1 1.8
2018-May-16 11:00N 09°31' W 079°54'  
2018-May-11 15:00N 29°14' W 093°40'510.5
2018-May-11 14:29N 29°20' W 093°40'5 9.4
2018-May-11 14:00N 29°24' W 093°40'2 0.9
2018-May-11 11:49N 29°25' W 093°38'0 0.0
2018-May-11 10:37N 29°25' W 093°38'0 0.0
2018-May-11 10:19N 29°25' W 093°38'0 0.0
2018-May-11 09:55N 29°25' W 093°38'0 0.0
2018-May-11 05:55N 29°25' W 093°38'0 0.0
2018-May-11 05:13N 29°25' W 093°38'0 0.0
2018-May-11 03:19N 29°25' W 093°38'0 0.0
2018-May-11 02:34N 29°25' W 093°38'0 0.0
2018-May-11 02:25N 29°25' W 093°38'0 0.0
2018-May-11 01:25N 29°25' W 093°38'0 0.0
2018-May-11 00:55N 29°25' W 093°38'0 0.0
2018-May-10 21:31N 29°25' W 093°38'0 0.1
2018-May-10 21:25N 29°25' W 093°38'0 0.0
2018-May-10 20:55N 29°25' W 093°38'0 0.0
2018-May-10 20:28N 29°25' W 093°38'0 0.1
2018-May-10 19:55N 29°25' W 093°38'0 0.2
2018-May-10 19:30N 29°25' W 093°38'2 3.7
2018-May-10 18:58N 29°26' W 093°40'4 8.3
2018-May-10 18:30N 29°30' W 093°41'611.3
2018-May-10 18:00N 29°34' W 093°46'510.6
2018-May-10 17:30N 29°38' W 093°49'5 9.5
2018-May-10 17:00N 29°42' W 093°51'4 8.1
2018-May-10 16:31N 29°46' W 093°54'4 7.6
2018-May-10 16:01N 29°48' W 093°57'3 6.4
2018-May-10 15:30N 29°51' W 093°57'3 5.6
2018-May-10 15:01N 29°54' W 093°55'3 5.9
2018-May-10 14:30N 29°56' W 093°52'3 5.8
2018-May-10 14:00N 29°59' W 093°52'3 6.1
2018-May-10 13:30N 29°59' W 093°56'3 5.6
2018-May-10 13:01N 30°01' W 093°58'3 5.5
2018-May-10 12:30N 30°01' W 094°02'2 4.6
2018-May-10 12:00N 30°04' W 094°02'2 4.2
2018-May-10 11:30N 30°05' W 094°04'0 0.1
2018-May-10 10:55N 30°05' W 094°04'0 0.0
2018-May-10 10:29N 30°05' W 094°04'0 0.0
2018-May-10 09:59N 30°05' W 094°04'0 0.0
2018-May-10 09:29N 30°05' W 094°04'0 0.0
2018-May-10 08:59N 30°05' W 094°04'0 0.0
2018-May-10 08:29N 30°05' W 094°04'0 0.0
2018-May-10 07:59N 30°05' W 094°04'0 0.0
2018-May-10 07:29N 30°05' W 094°04'0 0.0
2018-May-10 06:56N 30°05' W 094°04'0 0.0
2018-May-10 06:23N 30°05' W 094°04'0 0.0
2018-May-10 05:59N 30°05' W 094°04'0 0.0
2018-May-10 05:29N 30°05' W 094°04'0 0.0
2018-May-10 04:56N 30°05' W 094°04'0 0.0
2018-May-10 04:29N 30°05' W 094°04'0 0.0
2018-May-10 03:53N 30°05' W 094°04'0 0.0
2018-May-10 03:29N 30°05' W 094°04'0 0.0
2018-May-10 02:59N 30°05' W 094°04'0 0.0
2018-May-10 02:29N 30°05' W 094°04'0 0.0
2018-May-10 01:59N 30°05' W 094°04'0 0.0
2018-May-10 01:26N 30°05' W 094°04'0 0.0
2018-May-10 00:59N 30°05' W 094°04'0 0.0
2018-May-10 00:26N 30°05' W 094°04'0 0.0
2018-May-09 23:59N 30°05' W 094°04'0 0.0
2018-May-09 23:29N 30°05' W 094°04'0 0.0
2018-May-09 22:59N 30°05' W 094°04'0 0.0
2018-May-09 22:26N 30°05' W 094°04'0 0.0
2018-May-09 21:59N 30°05' W 094°04'0 0.0
2018-May-09 21:29N 30°05' W 094°04'0 0.0
2018-May-09 20:59N 30°05' W 094°04'0 0.0
2018-May-09 20:29N 30°05' W 094°04'0 0.0
2018-May-09 19:35N 30°05' W 094°04'0 0.0
2018-May-09 19:26N 30°05' W 094°04'0 0.0
2018-May-09 18:59N 30°05' W 094°04'0 0.0
2018-May-09 18:29N 30°05' W 094°04'0 0.0
2018-May-09 17:59N 30°05' W 094°04'0 0.0
2018-May-09 17:29N 30°05' W 094°04'0 0.0
2018-May-09 16:59N 30°05' W 094°04'0 0.0
2018-May-09 16:29N 30°05' W 094°04'0 0.0
2018-May-09 15:59N 30°05' W 094°04'0 0.0
2018-May-09 15:29N 30°05' W 094°04'0 0.0
2018-May-09 14:59N 30°05' W 094°04'0 0.0
2018-May-09 14:29N 30°05' W 094°04'0 0.0
2018-May-09 13:56N 30°05' W 094°04'0 0.0
2018-May-09 13:29N 30°05' W 094°04'0 0.0
2018-May-09 12:59N 30°05' W 094°04'0 0.0
2018-May-09 12:29N 30°05' W 094°04'0 0.0
2018-May-09 11:59N 30°05' W 094°04'0 0.0
2018-May-09 11:23N 30°05' W 094°04'0 0.0
2018-May-09 10:59N 30°05' W 094°04'0 0.0
2018-May-09 10:26N 30°05' W 094°04'0 0.0
2018-May-09 09:59N 30°05' W 094°04'0 0.0
2018-May-09 09:29N 30°05' W 094°04'0 0.0
2018-May-09 08:59N 30°05' W 094°04'0 0.0
2018-May-09 08:29N 30°05' W 094°04'0 0.0
2018-May-09 07:59N 30°05' W 094°04'0 0.0
2018-May-09 07:23N 30°05' W 094°04'0 0.0
2018-May-09 06:50N 30°05' W 094°04'0 0.0
2018-May-09 06:26N 30°05' W 094°04'0 0.0
2018-May-09 05:59N 30°05' W 094°04'0 0.0
2018-May-09 05:20N 30°05' W 094°04'0 0.0
2018-May-09 04:53N 30°05' W 094°04'0 0.0
2018-May-09 04:29N 30°05' W 094°04'0 0.0
2018-May-09 03:59N 30°05' W 094°04'0 0.0
2018-May-09 03:23N 30°05' W 094°04'0 0.0
2018-May-09 02:53N 30°05' W 094°04'0 0.0
2018-May-09 02:17N 30°05' W 094°04'0 0.0
2018-May-09 01:53N 30°05' W 094°04'0 0.0
2018-May-09 01:23N 30°05' W 094°04'0 0.0
2018-May-09 00:59N 30°05' W 094°04'0 0.0
2018-May-09 00:29N 30°05' W 094°04'0 0.0
2018-May-08 23:59N 30°05' W 094°04'0 0.0
2018-May-08 23:29N 30°05' W 094°04'0 0.0
2018-May-08 22:59N 30°05' W 094°04'0 0.0
2018-May-08 22:29N 30°05' W 094°04'0 0.0
2018-May-08 21:59N 30°05' W 094°04'0 0.0
2018-May-08 21:23N 30°05' W 094°04'0 0.0
2018-May-08 20:59N 30°05' W 094°04'0 0.0
2018-May-08 20:29N 30°05' W 094°04'0 0.0
2018-May-08 19:59N 30°05' W 094°04'0 0.0
2018-May-08 19:26N 30°05' W 094°04'0 0.0
2018-May-08 18:59N 30°05' W 094°04'0 0.0
2018-May-08 18:29N 30°05' W 094°04'0 0.0
2018-May-08 17:59N 30°05' W 094°04'0 0.0
2018-May-08 17:26N 30°05' W 094°04'0 0.0
2018-May-08 16:56N 30°05' W 094°04'0 0.0
2018-May-08 16:26N 30°05' W 094°04'0 0.0
2018-May-08 15:59N 30°05' W 094°04'0 0.0
2018-May-08 15:29N 30°05' W 094°04'0 0.0
2018-May-08 14:59N 30°05' W 094°04'0 0.0
2018-May-08 14:26N 30°05' W 094°04'0 0.0
2018-May-08 13:44N 30°05' W 094°04'0 0.0
2018-May-08 13:29N 30°05' W 094°04'0 0.0
2018-May-08 12:50N 30°05' W 094°04'0 0.0
2018-May-08 12:29N 30°05' W 094°04'0 0.0
2018-May-08 11:59N 30°05' W 094°04'0 0.0
2018-May-08 11:29N 30°05' W 094°04'0 0.0
2018-May-08 10:59N 30°05' W 094°04'0 0.0
2018-May-08 10:29N 30°05' W 094°04'0 0.0
2018-May-08 09:56N 30°05' W 094°04'0 0.0
2018-May-08 09:26N 30°05' W 094°04'0 0.0
2018-May-08 08:59N 30°05' W 094°04'0 0.0
2018-May-08 08:26N 30°05' W 094°04'0 0.0
2018-May-08 07:53N 30°05' W 094°04'0 0.0
2018-May-08 07:20N 30°05' W 094°04'0 0.0
2018-May-08 06:56N 30°05' W 094°04'0 0.0
2018-May-08 06:29N 30°05' W 094°04'0 0.0
2018-May-08 05:59N 30°05' W 094°04'0 0.0
2018-May-08 05:26N 30°05' W 094°04'0 0.0
2018-May-08 04:59N 30°05' W 094°04'0 0.0
2018-May-08 04:26N 30°05' W 094°04'0 0.0
2018-May-08 03:59N 30°05' W 094°04'0 0.0
2018-May-08 03:29N 30°05' W 094°04'0 0.0
2018-May-08 02:53N 30°05' W 094°04'0 0.0
2018-May-08 02:23N 30°05' W 094°04'0 0.0
2018-May-08 01:59N 30°05' W 094°04'0 0.0
2018-May-08 01:14N 30°05' W 094°04'0 0.0
2018-May-08 00:56N 30°05' W 094°04'0 0.0
2018-May-08 00:29N 30°05' W 094°04'0 0.0
2018-May-07 23:59N 30°05' W 094°04'0 0.0
2018-May-07 23:29N 30°05' W 094°04'0 0.0
2018-May-07 22:56N 30°05' W 094°04'0 0.0
2018-May-07 22:29N 30°05' W 094°04'0 0.0
2018-May-07 21:59N 30°05' W 094°04'0 0.0
2018-May-07 21:29N 30°05' W 094°04'0 0.0
2018-May-07 20:56N 30°05' W 094°04'0 0.0
2018-May-07 20:29N 30°05' W 094°04'0 0.0
2018-May-07 19:59N 30°05' W 094°04'0 0.0
2018-May-07 19:29N 30°05' W 094°04'0 0.0
2018-May-07 18:59N 30°05' W 094°04'0 0.0
2018-May-07 18:29N 30°05' W 094°04'  

Dump ship's entire track history